Time;durP1;ratioP1;P1;durP2;ratioP2;P2;SDS_P1;SDS_P2;PMS_P1;PMS_P2;Temp;Humidity;BMP_temperature;BMP_pressure;BME280_temperature;BME280_humidity;BME280_pressure;Samples;Min_cycle;Max_cycle;Signal;HPM_P1;HPM_P2
2024/01/14 00:01:35;;;;;;;21.40;20.03;;;;;;;2.34;100.00;100563.66;4991597;28;20462;-36
2024/01/14 00:04:03;;;;;;;21.23;19.83;;;;;;;2.28;100.00;100566.88;4995779;28;20473;-36
2024/01/14 00:06:31;;;;;;;23.30;20.80;;;;;;;2.23;100.00;100564.72;4987801;28;20473;-36
2024/01/14 00:08:59;;;;;;;21.13;19.23;;;;;;;2.28;100.00;100559.00;4991448;28;20452;-37
2024/01/14 00:11:28;;;;;;;21.57;19.67;;;;;;;2.30;100.00;100542.06;4993725;28;20462;-38
2024/01/14 00:13:56;;;;;;;20.10;19.00;;;;;;;2.31;100.00;100548.16;4992592;28;20446;-35
2024/01/14 00:16:23;;;;;;;20.97;19.70;;;;;;;2.20;100.00;100555.31;4983202;28;20460;-36
2024/01/14 00:18:51;;;;;;;21.67;20.23;;;;;;;2.19;100.00;100552.81;4987327;28;20501;-37
2024/01/14 00:21:19;;;;;;;19.63;18.73;;;;;;;2.12;100.00;100557.03;4989173;28;20472;-35
2024/01/14 00:23:46;;;;;;;20.97;19.50;;;;;;;2.12;100.00;100554.41;4980603;28;20534;-36
2024/01/14 00:26:14;;;;;;;21.13;19.50;;;;;;;2.11;100.00;100550.09;4987246;28;20480;-38
2024/01/14 00:28:43;;;;;;;20.77;19.67;;;;;;;2.09;100.00;100549.44;4983236;28;20437;-39
2024/01/14 00:31:11;;;;;;;22.50;21.00;;;;;;;2.03;100.00;100547.38;4986259;28;20497;-36
2024/01/14 00:33:40;;;;;;;24.27;22.50;;;;;;;1.98;100.00;100544.34;4987056;28;20443;-36
2024/01/14 00:36:09;;;;;;;21.70;20.60;;;;;;;1.94;100.00;100537.75;4978216;28;20457;-37
2024/01/14 00:38:38;;;;;;;23.27;21.87;;;;;;;1.88;100.00;100531.22;4985722;28;20446;-37
2024/01/14 00:41:06;;;;;;;20.33;19.10;;;;;;;1.84;100.00;100535.16;4983683;28;21081;-36
2024/01/14 00:43:34;;;;;;;22.33;21.00;;;;;;;1.85;100.00;100533.34;4990361;28;20469;-36
2024/01/14 00:46:04;;;;;;;22.57;21.50;;;;;;;1.83;100.00;100537.91;4985861;28;20854;-37
2024/01/14 00:48:32;;;;;;;22.00;20.23;;;;;;;1.86;100.00;100535.81;4981129;28;20442;-36
2024/01/14 00:51:00;;;;;;;23.37;21.10;;;;;;;1.92;100.00;100531.78;4990495;28;20529;-39
2024/01/14 00:53:28;;;;;;;22.30;20.67;;;;;;;1.94;100.00;100522.75;4992303;28;20448;-37
2024/01/14 00:55:55;;;;;;;21.93;20.50;;;;;;;1.90;100.00;100529.31;4989713;28;20451;-36
2024/01/14 00:58:24;;;;;;;25.03;23.00;;;;;;;1.89;100.00;100532.06;4988593;28;20430;-38
2024/01/14 01:00:53;;;;;;;23.67;21.33;;;;;;;1.89;100.00;100526.81;4991493;28;20521;-36
2024/01/14 01:03:22;;;;;;;22.37;20.67;;;;;;;1.88;100.00;100518.09;4993052;28;20442;-37
2024/01/14 01:05:50;;;;;;;22.13;20.43;;;;;;;1.90;100.00;100524.06;4987272;28;20501;-37
2024/01/14 01:08:18;;;;;;;24.97;22.57;;;;;;;1.86;100.00;100512.16;4970774;28;20451;-39
2024/01/14 01:10:46;;;;;;;21.53;20.20;;;;;;;1.87;100.00;100513.00;4984619;28;20984;-35
2024/01/14 01:13:14;;;;;;;21.87;20.10;;;;;;;1.91;100.00;100519.63;4994406;28;20878;-37
2024/01/14 01:15:42;;;;;;;21.57;20.47;;;;;;;1.93;100.00;100520.28;4991509;28;20441;-37
2024/01/14 01:18:11;;;;;;;22.63;20.57;;;;;;;1.96;100.00;100505.06;4990274;28;20446;-35
2024/01/14 01:20:40;;;;;;;22.90;21.10;;;;;;;1.97;100.00;100495.38;4978401;28;20534;-36
2024/01/14 01:23:08;;;;;;;24.30;22.50;;;;;;;1.94;100.00;100495.66;4977729;28;20465;-35
2024/01/14 01:25:36;;;;;;;23.70;21.70;;;;;;;1.94;100.00;100495.66;4985166;28;20564;-36
2024/01/14 01:28:04;;;;;;;24.17;21.77;;;;;;;1.97;100.00;100479.59;4991066;28;20437;-36
2024/01/14 01:30:32;;;;;;;22.30;21.00;;;;;;;1.99;100.00;100481.09;4993167;28;20500;-35
2024/01/14 01:33:00;;;;;;;23.17;21.47;;;;;;;2.01;100.00;100478.31;4987188;28;21145;-36
2024/01/14 01:35:28;;;;;;;23.70;21.83;;;;;;;2.04;100.00;100470.94;4988912;28;20465;-35
2024/01/14 01:37:57;;;;;;;24.57;23.03;;;;;;;2.08;100.00;100472.31;4985698;28;20445;-35
2024/01/14 01:40:25;;;;;;;24.97;23.33;;;;;;;2.06;100.00;100469.00;4989076;28;20504;-42
2024/01/14 01:42:53;;;;;;;24.97;23.40;;;;;;;2.07;100.00;100460.13;4984800;28;20514;-39
2024/01/14 01:45:20;;;;;;;25.30;23.80;;;;;;;2.12;100.00;100464.97;4987497;28;21104;-37
2024/01/14 01:47:48;;;;;;;25.77;23.90;;;;;;;2.13;100.00;100459.53;4994148;28;20469;-35
2024/01/14 01:50:16;;;;;;;25.03;23.13;;;;;;;2.08;100.00;100448.66;4993084;28;20457;-36
2024/01/14 01:52:45;;;;;;;25.27;23.10;;;;;;;2.03;100.00;100452.69;4992575;28;20519;-35
2024/01/14 01:55:14;;;;;;;24.80;22.97;;;;;;;1.96;100.00;100460.34;4982292;28;20461;-36
2024/01/14 01:57:42;;;;;;;23.70;21.57;;;;;;;1.96;100.00;100456.88;4988491;28;20520;-35
2024/01/14 02:00:13;;;;;;;22.63;21.13;;;;;;;1.92;100.00;100447.63;4983167;28;20442;-36
2024/01/14 02:02:42;;;;;;;23.20;21.37;;;;;;;1.94;100.00;100453.59;4987830;28;20461;-39
2024/01/14 02:05:11;;;;;;;22.83;20.80;;;;;;;1.91;100.00;100459.16;4989370;28;20918;-36
2024/01/14 02:07:39;;;;;;;23.60;21.90;;;;;;;1.92;100.00;100458.97;4987769;28;20530;-39
2024/01/14 02:10:08;;;;;;;24.40;22.17;;;;;;;1.89;100.00;100448.75;4979097;28;20593;-38
2024/01/14 02:12:37;;;;;;;24.70;22.17;;;;;;;1.92;100.00;100442.38;4979505;28;20474;-36
2024/01/14 02:15:06;;;;;;;24.37;22.23;;;;;;;1.88;100.00;100433.94;4983744;28;20469;-38
2024/01/14 02:17:34;;;;;;;24.00;22.20;;;;;;;1.88;100.00;100446.28;4981300;28;20438;-36
2024/01/14 02:20:02;;;;;;;24.63;22.43;;;;;;;1.91;100.00;100438.13;4987562;28;20446;-36
2024/01/14 02:22:34;;;;;;;33.13;24.00;;;;;;;1.92;100.00;100431.84;4982339;28;20513;-36
2024/01/14 02:25:03;;;;;;;23.40;21.30;;;;;;;1.89;100.00;100425.09;4981067;28;20881;-37
2024/01/14 02:27:32;;;;;;;22.90;21.10;;;;;;;1.92;100.00;100439.75;4989475;28;20540;-35
2024/01/14 02:30:04;;;;;;;23.30;21.50;;;;;;;1.90;100.00;100424.13;4985541;28;20441;-35
2024/01/14 02:32:32;;;;;;;26.27;22.27;;;;;;;1.89;100.00;100424.25;4986035;28;20522;-35
2024/01/14 02:35:00;;;;;;;21.87;20.70;;;;;;;1.89;100.00;100417.22;4990632;28;20941;-36
2024/01/14 02:37:28;;;;;;;25.13;23.20;;;;;;;1.89;100.00;100414.56;4989287;28;20438;-37
2024/01/14 02:39:55;;;;;;;23.83;21.70;;;;;;;1.91;100.00;100419.69;4988725;28;20507;-36
2024/01/14 02:42:24;;;;;;;22.40;21.30;;;;;;;1.93;100.00;100412.47;4989019;28;20552;-36
2024/01/14 02:44:52;;;;;;;22.60;21.10;;;;;;;1.92;100.00;100422.16;4989513;28;20961;-36
2024/01/14 02:47:20;;;;;;;22.70;21.23;;;;;;;1.96;100.00;100420.06;4981948;28;20474;-36
2024/01/14 02:49:48;;;;;;;24.47;22.67;;;;;;;1.96;100.00;100412.19;4989096;28;20452;-37
2024/01/14 02:52:16;;;;;;;24.63;22.80;;;;;;;1.98;100.00;100404.97;4988935;28;20462;-35
2024/01/14 02:54:43;;;;;;;23.33;21.77;;;;;;;1.98;100.00;100415.47;4989673;28;20480;-36
2024/01/14 02:57:11;;;;;;;23.10;21.50;;;;;;;2.05;100.00;100406.03;4989405;28;20480;-38
2024/01/14 02:59:40;;;;;;;24.13;22.33;;;;;;;2.08;100.00;100403.09;4980692;28;20979;-36
2024/01/14 03:02:08;;;;;;;23.20;21.83;;;;;;;2.09;100.00;100399.50;4988988;28;20473;-38
2024/01/14 03:04:36;;;;;;;25.43;22.93;;;;;;;2.10;100.00;100398.50;4988883;28;20445;-35
2024/01/14 03:07:04;;;;;;;23.90;22.00;;;;;;;2.09;100.00;100399.50;4990169;28;20503;-36
2024/01/14 03:09:32;;;;;;;23.77;21.80;;;;;;;2.09;100.00;100405.56;4985023;28;20458;-37
2024/01/14 03:11:59;;;;;;;23.23;21.77;;;;;;;2.12;100.00;100404.47;4986359;28;20466;-36
2024/01/14 03:14:27;;;;;;;23.30;21.80;;;;;;;2.09;100.00;100405.56;4991213;28;20489;-35
2024/01/14 03:16:59;;;;;;;23.23;21.47;;;;;;;2.08;100.00;100411.00;4986887;28;20454;-36
2024/01/14 03:19:27;;;;;;;24.90;22.70;;;;;;;2.09;100.00;100388.97;4980097;28;20911;-37
2024/01/14 03:21:55;;;;;;;22.97;21.13;;;;;;;2.08;100.00;100396.03;4980896;28;20457;-39
2024/01/14 03:24:23;;;;;;;25.33;23.00;;;;;;;2.10;100.00;100393.25;4988830;28;20444;-36
2024/01/14 03:26:50;;;;;;;23.53;21.93;;;;;;;2.09;100.00;100388.97;4977618;28;20489;-36
2024/01/14 03:29:18;;;;;;;24.47;22.40;;;;;;;2.09;100.00;100383.72;4969753;28;20489;-36
2024/01/14 03:31:46;;;;;;;32.80;22.83;;;;;;;2.10;100.00;100387.97;4988015;28;20984;-36
2024/01/14 03:34:15;;;;;;;24.23;22.37;;;;;;;2.11;100.00;100379.97;4991286;28;20503;-36
2024/01/14 03:36:43;;;;;;;23.37;21.57;;;;;;;2.08;100.00;100376.81;4992667;28;21016;-35
2024/01/14 03:39:10;;;;;;;24.33;22.40;;;;;;;2.09;100.00;100381.88;4991645;28;21008;-38
2024/01/14 03:41:38;;;;;;;25.30;23.20;;;;;;;2.10;100.00;100380.94;4990398;28;20473;-36
2024/01/14 03:44:06;;;;;;;24.10;21.97;;;;;;;2.09;100.00;100378.47;4988634;28;20465;-35
2024/01/14 03:46:33;;;;;;;24.53;22.50;;;;;;;2.08;100.00;100382.06;4986165;28;20478;-36
2024/01/14 03:49:01;;;;;;;24.57;22.40;;;;;;;2.06;100.00;100376.13;4991752;28;20437;-36
2024/01/14 03:51:30;;;;;;;24.50;22.50;;;;;;;2.08;100.00;100374.16;4978334;28;20466;-35
2024/01/14 03:53:58;;;;;;;25.37;23.13;;;;;;;2.06;100.00;100382.19;4990678;28;20996;-35
2024/01/14 03:56:26;;;;;;;23.93;22.00;;;;;;;2.08;100.00;100374.16;4994579;28;20461;-36
2024/01/14 03:58:53;;;;;;;24.57;22.53;;;;;;;2.08;100.00;100380.25;4977119;28;20538;-37
2024/01/14 04:01:21;;;;;;;22.23;20.73;;;;;;;2.06;100.00;100374.31;4991446;28;20472;-36
2024/01/14 04:03:49;;;;;;;22.67;21.00;;;;;;;2.09;100.00;100381.09;4991213;28;20444;-36
2024/01/14 04:06:20;;;;;;;23.40;21.40;;;;;;;2.13;100.00;100377.16;4995313;28;20493;-36
2024/01/14 04:08:49;;;;;;;23.97;21.80;;;;;;;2.14;100.00;100368.31;4983492;28;20521;-36
2024/01/14 04:11:17;;;;;;;23.50;22.07;;;;;;;2.12;100.00;100362.38;4985130;28;20474;-36
2024/01/14 04:13:45;;;;;;;23.13;21.00;;;;;;;2.11;100.00;100368.59;4993475;28;20484;-36
2024/01/14 04:16:13;;;;;;;23.10;21.13;;;;;;;2.10;100.00;100366.94;4988471;28;20495;-36
2024/01/14 04:18:41;;;;;;;21.47;20.37;;;;;;;2.08;100.00;100363.66;4983064;28;20449;-36
2024/01/14 04:21:08;;;;;;;24.20;22.30;;;;;;;2.10;100.00;100362.50;4991668;28;20470;-35
2024/01/14 04:23:36;;;;;;;23.83;21.80;;;;;;;2.10;100.00;100370.41;4989585;28;20446;-36
2024/01/14 04:26:08;;;;;;;23.30;21.83;;;;;;;2.10;100.00;100366.94;4986807;28;21217;-36
2024/01/14 04:28:36;;;;;;;24.23;22.20;;;;;;;2.08;100.00;100364.47;4991985;28;20976;-35
2024/01/14 04:31:03;;;;;;;23.10;21.10;;;;;;;2.07;100.00;100361.97;4990008;28;20476;-36
2024/01/14 04:33:32;;;;;;;23.50;21.63;;;;;;;2.05;100.00;100363.94;4985978;28;20447;-37
2024/01/14 04:36:01;;;;;;;23.67;21.17;;;;;;;2.08;100.00;100364.47;4981365;28;20977;-36
2024/01/14 04:38:30;;;;;;;24.07;21.93;;;;;;;2.11;100.00;100363.34;4987288;28;20521;-36
2024/01/14 04:40:57;;;;;;;22.23;20.17;;;;;;;2.14;100.00;100355.97;4973962;28;20470;-36
2024/01/14 04:43:26;;;;;;;22.40;20.50;;;;;;;2.17;100.00;100360.09;4981139;28;20532;-35
2024/01/14 04:45:54;;;;;;;23.03;20.57;;;;;;;2.16;100.00;100367.16;4992839;28;20456;-37
2024/01/14 04:48:22;;;;;;;24.37;21.97;;;;;;;2.14;100.00;100363.03;4989249;28;20552;-38
2024/01/14 04:50:51;;;;;;;23.33;21.33;;;;;;;2.15;100.00;100359.44;4991348;28;20445;-36
2024/01/14 04:53:18;;;;;;;22.63;21.00;;;;;;;2.17;100.00;100358.31;4985318;28;20475;-35
2024/01/14 04:55:46;;;;;;;23.07;21.03;;;;;;;2.16;100.00;100358.44;4990236;28;20560;-36
2024/01/14 04:58:14;;;;;;;25.27;22.80;;;;;;;2.13;100.00;100358.75;4991503;28;20444;-36
2024/01/14 05:00:43;;;;;;;24.97;23.00;;;;;;;2.09;100.00;100360.84;4983848;28;20444;-35
2024/01/14 05:03:11;;;;;;;23.23;21.50;;;;;;;2.11;100.00;100364.19;4988458;28;20823;-36
2024/01/14 05:05:39;;;;;;;23.37;21.67;;;;;;;2.11;100.00;100361.53;4991236;28;20468;-36
2024/01/14 05:08:06;;;;;;;21.63;20.10;;;;;;;2.08;100.00;100366.28;4992254;28;20502;-35
2024/01/14 05:10:34;;;;;;;24.07;22.20;;;;;;;2.10;100.00;100359.06;4983298;28;20442;-37
2024/01/14 05:13:02;;;;;;;23.00;21.17;;;;;;;2.15;100.00;100359.44;4991626;28;20512;-35
2024/01/14 05:15:30;;;;;;;23.53;21.43;;;;;;;2.17;100.00;100360.09;4984518;28;21059;-36
2024/01/14 05:17:59;;;;;;;24.27;22.13;;;;;;;2.20;100.00;100359.81;4981034;28;20950;-36
2024/01/14 05:20:28;;;;;;;23.63;21.30;;;;;;;2.24;100.00;100355.88;4988262;28;20512;-37
2024/01/14 05:22:56;;;;;;;23.27;21.07;;;;;;;2.24;100.00;100354.06;4980339;28;20466;-36
2024/01/14 05:25:23;;;;;;;27.70;21.20;;;;;;;2.26;100.00;100361.84;4988453;28;20516;-37
2024/01/14 05:27:51;;;;;;;24.13;21.77;;;;;;;2.22;100.00;100358.66;4988974;28;20482;-36
2024/01/14 05:30:19;;;;;;;22.63;21.00;;;;;;;2.22;100.00;100355.22;4988764;28;20438;-39
2024/01/14 05:32:47;;;;;;;23.93;21.80;;;;;;;2.19;100.00;100355.50;4988522;28;20468;-37
2024/01/14 05:35:16;;;;;;;24.90;22.53;;;;;;;2.15;100.00;100359.44;4980802;28;20509;-37
2024/01/14 05:37:43;;;;;;;24.27;22.47;;;;;;;2.14;100.00;100357.78;4988505;28;20496;-40
2024/01/14 05:40:11;;;;;;;23.97;22.17;;;;;;;2.14;100.00;100355.16;4988956;28;20466;-37
2024/01/14 05:42:40;;;;;;;25.47;22.90;;;;;;;2.13;100.00;100345.59;4973881;28;20466;-36
2024/01/14 05:45:10;;;;;;;23.60;21.70;;;;;;;2.13;100.00;100341.16;4989149;28;20457;-35
2024/01/14 05:47:38;;;;;;;23.87;20.80;;;;;;;2.14;100.00;100345.47;4989096;28;20481;-36
2024/01/14 05:50:07;;;;;;;24.47;22.67;;;;;;;2.16;100.00;100351.38;4980800;28;20493;-38
2024/01/14 05:52:37;;;;;;;24.50;22.07;;;;;;;2.18;100.00;100346.00;4980325;28;20561;-37
2024/01/14 05:55:06;;;;;;;24.17;22.40;;;;;;;2.22;100.00;100357.84;4980027;28;20461;-40
2024/01/14 05:57:33;;;;;;;24.30;21.90;;;;;;;2.23;100.00;100346.34;4980640;28;20465;-40
2024/01/14 06:00:01;;;;;;;25.23;22.40;;;;;;;2.23;100.00;100343.72;4980838;28;20449;-40
2024/01/14 06:02:29;;;;;;;24.17;22.00;;;;;;;2.23;100.00;100335.81;4980605;28;20494;-37
2024/01/14 06:04:57;;;;;;;23.33;21.30;;;;;;;2.24;100.00;100346.19;4980099;28;20430;-42
2024/01/14 06:07:25;;;;;;;23.37;21.80;;;;;;;2.27;100.00;100345.03;4990335;28;20952;-38
2024/01/14 06:09:54;;;;;;;25.40;22.90;;;;;;;2.26;100.00;100327.63;4988252;28;20434;-39
2024/01/14 06:12:22;;;;;;;25.33;23.13;;;;;;;2.28;100.00;100338.81;4981810;28;20499;-40
2024/01/14 06:14:50;;;;;;;24.20;22.10;;;;;;;2.29;100.00;100329.94;4986857;28;20446;-37
2024/01/14 06:17:18;;;;;;;25.50;22.93;;;;;;;2.27;100.00;100331.09;4980293;28;20512;-38
2024/01/14 06:19:46;;;;;;;23.57;21.53;;;;;;;2.32;100.00;100328.81;4980024;28;20445;-40
2024/01/14 06:22:14;;;;;;;24.57;22.70;;;;;;;2.33;100.00;100331.28;4987570;28;20524;-36
2024/01/14 06:24:42;;;;;;;23.60;21.67;;;;;;;2.34;100.00;100327.69;4994536;28;20437;-38
2024/01/14 06:27:11;;;;;;;25.53;22.90;;;;;;;2.39;100.00;100320.13;4999797;28;20811;-37
2024/01/14 06:29:41;;;;;;;22.47;20.60;;;;;;;2.47;100.00;100322.84;4988697;28;20481;-35
2024/01/14 06:32:08;;;;;;;22.53;20.77;;;;;;;2.54;100.00;100321.22;4988552;28;20473;-39
2024/01/14 06:34:36;;;;;;;25.60;23.57;;;;;;;2.59;100.00;100318.13;4980722;28;20489;-39
2024/01/14 06:37:04;;;;;;;24.30;22.50;;;;;;;2.61;100.00;100319.63;4972416;28;21208;-38
2024/01/14 06:39:32;;;;;;;23.10;20.93;;;;;;;2.64;100.00;100318.50;4982003;28;20438;-41
2024/01/14 06:42:00;;;;;;;23.30;21.70;;;;;;;2.69;100.00;100313.56;4987417;28;20516;-40
2024/01/14 06:44:30;;;;;;;22.97;20.50;;;;;;;2.70;100.00;100315.22;4980589;28;20446;-42
2024/01/14 06:46:57;;;;;;;22.93;21.03;;;;;;;2.70;100.00;100316.06;4987719;28;20549;-39
2024/01/14 06:49:25;;;;;;;24.20;21.50;;;;;;;2.71;100.00;100316.91;4988366;28;20480;-36
2024/01/14 06:51:53;;;;;;;23.37;20.97;;;;;;;2.71;100.00;100309.00;4987399;28;20476;-39
2024/01/14 06:54:21;;;;;;;24.43;22.43;;;;;;;2.67;100.00;100303.22;4981150;28;20998;-39
2024/01/14 06:56:48;;;;;;;24.77;21.87;;;;;;;2.65;100.00;100310.44;4988381;28;20846;-37
2024/01/14 06:59:18;;;;;;;27.10;22.57;;;;;;;2.59;100.00;100299.72;4976192;28;20497;-40
2024/01/14 07:01:48;;;;;;;24.13;21.97;;;;;;;2.53;100.00;100305.59;4976620;28;20466;-37
2024/01/14 07:04:16;;;;;;;24.00;22.10;;;;;;;2.49;100.00;100297.19;4982248;28;20877;-42
2024/01/14 07:06:44;;;;;;;24.63;22.50;;;;;;;2.43;100.00;100291.72;4981102;28;20470;-38
2024/01/14 07:09:12;;;;;;;27.13;23.70;;;;;;;2.36;100.00;100288.88;4984930;28;20474;-37
2024/01/14 07:11:40;;;;;;;25.27;23.07;;;;;;;2.30;100.00;100299.22;4982980;28;20458;-35
2024/01/14 07:14:08;;;;;;;23.87;22.10;;;;;;;2.28;100.00;100293.25;5003176;28;20436;-41
2024/01/14 07:16:36;;;;;;;24.07;22.10;;;;;;;2.23;100.00;100291.09;5002663;28;20495;-39
2024/01/14 07:19:05;;;;;;;23.47;21.93;;;;;;;2.25;100.00;100297.03;4984664;28;20439;-37
2024/01/14 07:21:33;;;;;;;23.00;21.27;;;;;;;2.28;100.00;100294.09;4990360;28;20472;-40
2024/01/14 07:24:01;;;;;;;24.23;22.20;;;;;;;2.30;100.00;100288.69;4999214;28;20477;-40
2024/01/14 07:26:29;;;;;;;24.33;22.70;;;;;;;2.33;100.00;100296.28;4996413;28;20471;-41
2024/01/14 07:28:57;;;;;;;25.80;23.77;;;;;;;2.38;100.00;100301.88;5002584;28;20477;-38
2024/01/14 07:31:27;;;;;;;25.70;22.30;;;;;;;2.42;100.00;100303.25;4996464;28;20555;-39
2024/01/14 07:33:56;;;;;;;25.50;22.90;;;;;;;2.45;100.00;100297.66;4991709;28;20521;-36
2024/01/14 07:36:25;;;;;;;21.53;19.67;;;;;;;2.49;100.00;100302.44;4992335;28;20453;-40
2024/01/14 07:38:54;;;;;;;21.90;20.17;;;;;;;2.52;100.00;100302.13;4991823;28;20522;-39
2024/01/14 07:41:22;;;;;;;22.50;20.53;;;;;;;2.55;100.00;100296.56;4978558;28;21015;-39
2024/01/14 07:43:49;;;;;;;21.70;20.30;;;;;;;2.56;100.00;100298.22;4986367;28;20462;-39
2024/01/14 07:46:17;;;;;;;24.10;21.80;;;;;;;2.54;100.00;100300.16;4992413;28;20461;-37
2024/01/14 07:48:45;;;;;;;20.80;19.50;;;;;;;2.54;100.00;100302.00;4989092;28;20496;-39
2024/01/14 07:51:13;;;;;;;23.00;21.03;;;;;;;2.59;100.00;100297.91;4985889;28;20470;-35
2024/01/14 07:53:42;;;;;;;23.53;21.23;;;;;;;2.67;100.00;100300.59;4982662;28;20434;-38
2024/01/14 07:56:10;;;;;;;22.30;20.57;;;;;;;2.73;100.00;100296.50;4969553;28;20557;-40
2024/01/14 07:58:38;;;;;;;22.83;21.23;;;;;;;2.77;100.00;100295.22;4978370;28;20442;-40
2024/01/14 08:01:06;;;;;;;21.80;20.60;;;;;;;2.77;100.00;100288.13;4977833;28;20459;-38
2024/01/14 08:03:35;;;;;;;22.27;20.60;;;;;;;2.81;100.00;100298.34;4992372;28;20465;-40
2024/01/14 08:06:04;;;;;;;22.47;20.10;;;;;;;2.82;100.00;100294.72;4989727;28;20462;-41
2024/01/14 08:08:31;;;;;;;21.33;19.60;;;;;;;2.86;100.00;100290.81;4988050;28;20566;-41
2024/01/14 08:11:01;;;;;;;21.60;19.90;;;;;;;2.93;100.00;100300.53;4990449;28;20845;-37
2024/01/14 08:13:29;;;;;;;22.40;20.90;;;;;;;2.97;100.00;100301.03;4991749;28;20453;-36
2024/01/14 08:15:57;;;;;;;22.53;20.57;;;;;;;3.03;100.00;100297.78;4980156;28;20518;-39
2024/01/14 08:18:30;;;;;;;24.87;22.90;;;;;;;3.07;100.00;100283.31;4983620;28;20434;-40
2024/01/14 08:20:59;;;;;;;20.17;18.70;;;;;;;3.12;100.00;100299.47;4989766;28;20915;-36
2024/01/14 08:23:29;;;;;;;22.20;20.50;;;;;;;3.14;100.00;100292.22;4992516;28;20529;-37
2024/01/14 08:25:57;;;;;;;26.93;21.53;;;;;;;3.20;100.00;100287.13;4982401;28;20522;-38
2024/01/14 08:28:26;;;;;;;22.10;20.17;;;;;;;3.25;100.00;100289.31;4982662;28;20442;-37
2024/01/14 08:30:54;;;;;;;22.17;20.17;;;;;;;3.29;100.00;100295.88;4986354;28;20462;-37
2024/01/14 08:33:22;;;;;;;21.50;19.50;;;;;;;3.39;100.00;100293.94;4989782;28;20438;-37
2024/01/14 08:35:50;;;;;;;22.47;20.67;;;;;;;3.46;100.00;100284.41;4992454;28;20466;-39
2024/01/14 08:38:18;;;;;;;21.93;20.43;;;;;;;3.48;100.00;100279.78;4993320;28;20818;-40
2024/01/14 08:40:46;;;;;;;21.43;19.50;;;;;;;3.53;100.00;100279.28;4989736;28;20445;-36
2024/01/14 08:43:14;;;;;;;21.07;19.63;;;;;;;3.52;100.00;100278.50;4988744;28;20430;-37
2024/01/14 08:45:43;;;;;;;23.97;22.37;;;;;;;3.50;100.00;100282.25;4989585;28;20512;-37
2024/01/14 08:48:13;;;;;;;21.83;20.20;;;;;;;3.57;100.00;100284.09;4981359;28;20434;-36
2024/01/14 08:50:41;;;;;;;21.90;20.43;;;;;;;3.61;100.00;100284.59;4988621;28;21015;-37
2024/01/14 08:53:09;;;;;;;21.43;19.83;;;;;;;3.63;100.00;100272.91;4990161;28;20926;-35
2024/01/14 08:55:36;;;;;;;21.40;19.90;;;;;;;3.70;100.00;100268.59;4974492;28;20486;-39
2024/01/14 08:58:04;;;;;;;21.33;19.97;;;;;;;3.74;100.00;100269.94;4990317;28;20920;-39
2024/01/14 09:00:32;;;;;;;20.53;19.10;;;;;;;3.73;100.00;100278.03;4992037;28;20430;-37
2024/01/14 09:03:01;;;;;;;20.67;19.43;;;;;;;3.77;100.00;100269.59;4991599;28;20473;-39
2024/01/14 09:05:29;;;;;;;22.97;20.47;;;;;;;3.78;100.00;100273.91;4989745;28;20873;-39
2024/01/14 09:07:57;;;;;;;21.07;19.70;;;;;;;3.77;100.00;100268.78;4987259;28;20469;-36
2024/01/14 09:10:24;;;;;;;20.93;19.50;;;;;;;3.84;100.00;100267.13;4974903;28;20469;-37
2024/01/14 09:12:52;;;;;;;23.07;21.00;;;;;;;3.88;100.00;100266.63;4988320;28;20458;-35
2024/01/14 09:15:20;;;;;;;21.97;20.07;;;;;;;3.94;100.00;100259.06;4976611;28;20494;-39
2024/01/14 09:17:48;;;;;;;22.23;20.40;;;;;;;3.94;100.00;100262.53;4986534;28;20449;-35
2024/01/14 09:20:17;;;;;;;21.93;20.27;;;;;;;3.97;100.00;100258.72;4981182;28;21022;-37
2024/01/14 09:22:45;;;;;;;24.80;22.67;;;;;;;3.98;100.00;100252.44;4988254;28;20948;-39
2024/01/14 09:25:13;;;;;;;22.73;21.20;;;;;;;4.04;100.00;100259.69;4988596;28;20489;-40
2024/01/14 09:27:41;;;;;;;22.70;20.10;;;;;;;4.02;100.00;100261.69;4994078;28;20855;-40
2024/01/14 09:30:09;;;;;;;22.80;21.07;;;;;;;4.04;100.00;100255.25;5000836;28;20535;-37
2024/01/14 09:32:37;;;;;;;23.40;21.80;;;;;;;4.09;100.00;100255.56;4992834;28;20500;-42
2024/01/14 09:35:06;;;;;;;23.97;21.80;;;;;;;4.06;100.00;100249.81;4985899;28;20540;-36
2024/01/14 09:37:35;;;;;;;23.13;21.50;;;;;;;4.10;100.00;100245.84;4972788;28;20509;-39
2024/01/14 09:40:03;;;;;;;23.87;21.50;;;;;;;4.19;100.00;100250.13;4985606;28;20913;-36
2024/01/14 09:42:35;;;;;;;22.50;20.73;;;;;;;4.24;100.00;100256.53;4989271;28;20510;-37
2024/01/14 09:45:05;;;;;;;21.23;20.03;;;;;;;4.29;100.00;100250.78;4982191;28;21029;-38
2024/01/14 09:47:34;;;;;;;24.90;21.87;;;;;;;4.40;100.00;100251.25;4989555;28;20438;-37
2024/01/14 09:50:03;;;;;;;23.37;22.03;;;;;;;4.48;100.00;100251.22;4980821;28;20482;-36
2024/01/14 09:52:31;;;;;;;24.00;22.30;;;;;;;4.58;100.00;100256.31;4988332;28;20512;-37
2024/01/14 09:55:01;;;;;;;24.43;22.57;;;;;;;4.56;100.00;100239.81;4988870;28;21028;-38
2024/01/14 09:57:30;;;;;;;24.40;22.20;;;;;;;4.57;100.00;100241.44;4986833;28;20542;-40
2024/01/14 10:00:04;;;;;;;23.23;21.10;;;;;;;4.61;100.00;100242.75;4976540;28;20438;-37
2024/01/14 10:02:33;;;;;;;21.83;20.33;;;;;;;4.75;100.00;100235.97;4987844;28;20458;-39
2024/01/14 10:05:01;;;;;;;21.03;19.70;;;;;;;4.84;100.00;100242.81;4986855;28;20454;-36
2024/01/14 10:07:30;;;;;;;22.53;21.13;;;;;;;4.86;100.00;100233.75;4977100;28;20447;-36
2024/01/14 10:09:58;;;;;;;21.90;20.03;;;;;;;4.92;100.00;100230.44;4985845;28;20476;-37
2024/01/14 10:12:27;;;;;;;21.63;20.00;;;;;;;5.12;100.00;100236.09;4987885;28;20508;-37
2024/01/14 10:14:58;;;;;;;22.60;20.73;;;;;;;5.18;100.00;100227.47;4988361;28;20513;-39
2024/01/14 10:17:27;;;;;;;22.93;21.40;;;;;;;5.19;100.00;100218.56;4980277;28;20478;-37
2024/01/14 10:19:55;;;;;;;24.87;22.20;;;;;;;5.10;100.00;100216.13;4980438;28;20430;-37
2024/01/14 10:22:23;;;;;;;22.60;21.50;;;;;;;4.98;100.00;100210.41;4987675;28;20557;-37
2024/01/14 10:24:52;;;;;;;25.63;23.90;;;;;;;4.95;100.00;100205.47;4988365;28;20538;-40
2024/01/14 10:27:21;;;;;;;23.00;21.30;;;;;;;5.01;100.00;100202.16;4980541;28;20478;-37
2024/01/14 10:30:09;;;;;;;22.63;20.97;;;;;;;4.93;100.00;100203.00;4988309;28;20992;-37
2024/01/14 10:32:38;;;;;;;22.27;20.90;;;;;;;4.88;100.00;100193.94;4979094;28;20476;-37
2024/01/14 10:35:26;;;;;;;22.23;21.03;;;;;;;4.82;100.00;100181.44;4980929;28;20458;-36
2024/01/14 10:37:55;;;;;;;22.93;21.60;;;;;;;4.73;100.00;100191.22;4979798;28;20501;-37
2024/01/14 10:40:23;;;;;;;22.40;20.80;;;;;;;4.69;100.00;100175.91;4987839;28;20442;-39
2024/01/14 10:42:51;;;;;;;21.90;20.67;;;;;;;4.59;100.00;100175.28;4989919;28;20501;-39
2024/01/14 10:45:20;;;;;;;21.53;20.23;;;;;;;4.49;100.00;100172.84;4988679;28;20475;-37
2024/01/14 10:47:51;;;;;;;20.67;19.37;;;;;;;4.36;100.00;100172.56;4980186;28;21215;-37
2024/01/14 10:50:19;;;;;;;21.93;20.73;;;;;;;4.27;100.00;100166.47;4976322;28;20520;-39
2024/01/14 10:52:54;;;;;;;21.90;20.40;;;;;;;4.16;100.00;100168.66;4983584;28;20461;-40
2024/01/14 10:55:31;;;;;;;22.17;20.97;;;;;;;4.12;100.00;100162.09;4988266;28;20464;-37
2024/01/14 10:58:03;;;;;;;23.60;22.10;;;;;;;4.13;100.00;100161.91;4988264;28;20532;-39
2024/01/14 11:00:36;;;;;;;22.03;20.80;;;;;;;4.17;100.00;100165.84;4985326;28;21002;-39
2024/01/14 11:03:05;;;;;;;22.43;21.30;;;;;;;4.30;100.00;100152.13;4975261;28;20466;-39
2024/01/14 11:05:35;;;;;;;23.23;21.33;;;;;;;4.38;100.00;100152.91;4991824;28;20472;-36
2024/01/14 11:08:04;;;;;;;23.77;21.50;;;;;;;4.39;100.00;100151.09;4994313;28;20448;-37
2024/01/14 11:10:33;;;;;;;21.13;20.20;;;;;;;4.48;100.00;100135.03;4986867;28;20484;-40
2024/01/14 11:13:08;;;;;;;23.60;22.00;;;;;;;4.57;100.00;100135.81;4985765;28;20496;-37
2024/01/14 11:15:44;;;;;;;23.43;21.83;;;;;;;4.61;100.00;100142.41;4985626;28;20548;-38